sensor_id;sensor_type;location;lat;lon;timestamp;P1;durP1;ratioP1;P2;durP2;ratioP2
46927;SDS011;32668;51.306;-0.576;2022-08-06T00:01:48;5.05;;;1.20;;
46927;SDS011;32668;51.306;-0.576;2022-08-06T00:04:14;7.78;;;1.58;;
46927;SDS011;32668;51.306;-0.576;2022-08-06T00:06:39;1.95;;;1.00;;
46927;SDS011;32668;51.306;-0.576;2022-08-06T00:09:04;4.95;;;1.27;;
46927;SDS011;32668;51.306;-0.576;2022-08-06T00:11:30;3.38;;;0.90;;
46927;SDS011;32668;51.306;-0.576;2022-08-06T00:13:56;4.90;;;1.23;;
46927;SDS011;32668;51.306;-0.576;2022-08-06T00:16:21;1.60;;;0.90;;
46927;SDS011;32668;51.306;-0.576;2022-08-06T00:18:46;1.98;;;1.42;;
46927;SDS011;32668;51.306;-0.576;2022-08-06T00:21:12;6.85;;;1.80;;
46927;SDS011;32668;51.306;-0.576;2022-08-06T00:23:37;4.47;;;1.65;;
46927;SDS011;32668;51.306;-0.576;2022-08-06T00:26:03;2.88;;;1.90;;
46927;SDS011;32668;51.306;-0.576;2022-08-06T00:28:28;6.57;;;1.67;;
46927;SDS011;32668;51.306;-0.576;2022-08-06T00:30:54;4.70;;;2.00;;
46927;SDS011;32668;51.306;-0.576;2022-08-06T00:33:19;5.95;;;2.08;;
46927;SDS011;32668;51.306;-0.576;2022-08-06T00:35:44;11.48;;;2.15;;
46927;SDS011;32668;51.306;-0.576;2022-08-06T00:38:10;7.50;;;2.72;;
46927;SDS011;32668;51.306;-0.576;2022-08-06T00:40:36;10.93;;;2.35;;
46927;SDS011;32668;51.306;-0.576;2022-08-06T00:43:02;3.72;;;2.08;;
46927;SDS011;32668;51.306;-0.576;2022-08-06T00:45:29;5.82;;;2.58;;
46927;SDS011;32668;51.306;-0.576;2022-08-06T00:47:55;3.95;;;2.20;;
46927;SDS011;32668;51.306;-0.576;2022-08-06T00:50:21;5.30;;;2.20;;
46927;SDS011;32668;51.306;-0.576;2022-08-06T00:52:46;4.35;;;1.88;;
46927;SDS011;32668;51.306;-0.576;2022-08-06T00:55:12;5.43;;;2.10;;
46927;SDS011;32668;51.306;-0.576;2022-08-06T00:57:38;6.72;;;2.60;;
46927;SDS011;32668;51.306;-0.576;2022-08-06T01:00:05;5.10;;;2.33;;
46927;SDS011;32668;51.306;-0.576;2022-08-06T01:02:31;6.35;;;2.42;;
46927;SDS011;32668;51.306;-0.576;2022-08-06T01:04:57;5.20;;;2.78;;
46927;SDS011;32668;51.306;-0.576;2022-08-06T01:07:22;5.10;;;2.35;;
46927;SDS011;32668;51.306;-0.576;2022-08-06T01:09:48;7.53;;;3.13;;
46927;SDS011;32668;51.306;-0.576;2022-08-06T01:12:14;3.97;;;2.30;;
46927;SDS011;32668;51.306;-0.576;2022-08-06T01:14:40;5.70;;;2.53;;
46927;SDS011;32668;51.306;-0.576;2022-08-06T01:17:13;7.80;;;3.03;;
46927;SDS011;32668;51.306;-0.576;2022-08-06T01:19:48;5.10;;;2.90;;
46927;SDS011;32668;51.306;-0.576;2022-08-06T01:27:55;5.45;;;3.00;;
46927;SDS011;32668;51.306;-0.576;2022-08-06T01:30:27;6.72;;;2.72;;
46927;SDS011;32668;51.306;-0.576;2022-08-06T01:33:04;10.02;;;3.95;;
46927;SDS011;32668;51.306;-0.576;2022-08-06T01:35:35;4.13;;;2.53;;
46927;SDS011;32668;51.306;-0.576;2022-08-06T01:38:15;8.15;;;3.40;;
46927;SDS011;32668;51.306;-0.576;2022-08-06T01:40:45;5.03;;;2.88;;
46927;SDS011;32668;51.306;-0.576;2022-08-06T01:43:13;8.20;;;2.75;;
46927;SDS011;32668;51.306;-0.576;2022-08-06T01:45:42;4.65;;;3.00;;
46927;SDS011;32668;51.306;-0.576;2022-08-06T01:48:12;4.70;;;3.05;;
46927;SDS011;32668;51.306;-0.576;2022-08-06T01:50:40;5.47;;;3.22;;
46927;SDS011;32668;51.306;-0.576;2022-08-06T01:53:15;5.38;;;2.78;;
46927;SDS011;32668;51.306;-0.576;2022-08-06T01:55:43;7.80;;;3.70;;
46927;SDS011;32668;51.306;-0.576;2022-08-06T01:58:11;9.68;;;3.30;;
46927;SDS011;32668;51.306;-0.576;2022-08-06T02:00:40;6.13;;;3.42;;
46927;SDS011;32668;51.306;-0.576;2022-08-06T02:03:11;4.97;;;3.08;;
46927;SDS011;32668;51.306;-0.576;2022-08-06T02:05:41;5.18;;;3.20;;
46927;SDS011;32668;51.306;-0.576;2022-08-06T02:08:09;8.95;;;3.10;;
46927;SDS011;32668;51.306;-0.576;2022-08-06T02:10:38;6.07;;;2.90;;
46927;SDS011;32668;51.306;-0.576;2022-08-06T02:13:05;4.00;;;2.90;;
46927;SDS011;32668;51.306;-0.576;2022-08-06T02:15:35;4.97;;;3.10;;
46927;SDS011;32668;51.306;-0.576;2022-08-06T02:18:02;4.55;;;3.33;;
46927;SDS011;32668;51.306;-0.576;2022-08-06T02:20:35;6.50;;;3.55;;
46927;SDS011;32668;51.306;-0.576;2022-08-06T02:23:07;5.47;;;3.38;;
46927;SDS011;32668;51.306;-0.576;2022-08-06T02:25:35;7.78;;;3.70;;
46927;SDS011;32668;51.306;-0.576;2022-08-06T02:28:04;5.35;;;3.45;;
46927;SDS011;32668;51.306;-0.576;2022-08-06T02:30:32;4.70;;;3.80;;
46927;SDS011;32668;51.306;-0.576;2022-08-06T02:33:00;8.30;;;3.50;;
46927;SDS011;32668;51.306;-0.576;2022-08-06T02:35:26;5.07;;;3.47;;
46927;SDS011;32668;51.306;-0.576;2022-08-06T02:37:59;5.95;;;3.50;;
46927;SDS011;32668;51.306;-0.576;2022-08-06T02:40:29;4.45;;;3.10;;
46927;SDS011;32668;51.306;-0.576;2022-08-06T02:43:06;6.18;;;3.60;;
46927;SDS011;32668;51.306;-0.576;2022-08-06T02:45:47;5.18;;;3.70;;
46927;SDS011;32668;51.306;-0.576;2022-08-06T02:48:21;5.18;;;4.20;;
46927;SDS011;32668;51.306;-0.576;2022-08-06T02:50:53;7.30;;;4.10;;
46927;SDS011;32668;51.306;-0.576;2022-08-06T02:53:26;7.10;;;4.22;;
46927;SDS011;32668;51.306;-0.576;2022-08-06T02:56:04;9.40;;;4.38;;
46927;SDS011;32668;51.306;-0.576;2022-08-06T02:58:40;5.50;;;4.10;;
46927;SDS011;32668;51.306;-0.576;2022-08-06T03:01:11;7.15;;;4.60;;
46927;SDS011;32668;51.306;-0.576;2022-08-06T03:03:40;6.60;;;4.57;;
46927;SDS011;32668;51.306;-0.576;2022-08-06T03:06:09;7.35;;;4.63;;
46927;SDS011;32668;51.306;-0.576;2022-08-06T03:08:37;6.47;;;4.35;;
46927;SDS011;32668;51.306;-0.576;2022-08-06T03:11:04;10.50;;;4.82;;
46927;SDS011;32668;51.306;-0.576;2022-08-06T03:13:31;10.63;;;4.57;;
46927;SDS011;32668;51.306;-0.576;2022-08-06T03:15:58;8.90;;;4.93;;
46927;SDS011;32668;51.306;-0.576;2022-08-06T03:18:26;11.05;;;5.18;;
46927;SDS011;32668;51.306;-0.576;2022-08-06T03:20:52;8.95;;;5.00;;
46927;SDS011;32668;51.306;-0.576;2022-08-06T03:23:19;8.07;;;4.93;;
46927;SDS011;32668;51.306;-0.576;2022-08-06T03:25:46;8.60;;;5.65;;
46927;SDS011;32668;51.306;-0.576;2022-08-06T03:28:13;9.80;;;5.65;;
46927;SDS011;32668;51.306;-0.576;2022-08-06T03:30:39;12.50;;;5.35;;
46927;SDS011;32668;51.306;-0.576;2022-08-06T03:33:07;12.77;;;5.53;;
46927;SDS011;32668;51.306;-0.576;2022-08-06T03:35:35;9.90;;;5.07;;
46927;SDS011;32668;51.306;-0.576;2022-08-06T03:38:02;9.88;;;5.40;;
46927;SDS011;32668;51.306;-0.576;2022-08-06T03:40:29;11.95;;;6.10;;
46927;SDS011;32668;51.306;-0.576;2022-08-06T03:42:56;10.48;;;5.57;;
46927;SDS011;32668;51.306;-0.576;2022-08-06T03:45:21;8.93;;;5.90;;
46927;SDS011;32668;51.306;-0.576;2022-08-06T03:47:51;7.78;;;5.05;;
46927;SDS011;32668;51.306;-0.576;2022-08-06T03:50:22;7.97;;;5.38;;
46927;SDS011;32668;51.306;-0.576;2022-08-06T03:53:03;10.38;;;5.78;;
46927;SDS011;32668;51.306;-0.576;2022-08-06T03:55:33;11.45;;;5.45;;
46927;SDS011;32668;51.306;-0.576;2022-08-06T03:58:04;8.38;;;5.30;;
46927;SDS011;32668;51.306;-0.576;2022-08-06T04:00:35;10.07;;;5.57;;
46927;SDS011;32668;51.306;-0.576;2022-08-06T04:03:07;12.27;;;5.60;;
46927;SDS011;32668;51.306;-0.576;2022-08-06T04:05:34;8.18;;;5.40;;
46927;SDS011;32668;51.306;-0.576;2022-08-06T04:08:03;8.80;;;5.65;;
46927;SDS011;32668;51.306;-0.576;2022-08-06T04:10:33;12.15;;;6.50;;
46927;SDS011;32668;51.306;-0.576;2022-08-06T04:13:04;11.37;;;5.90;;
46927;SDS011;32668;51.306;-0.576;2022-08-06T04:15:52;9.43;;;6.10;;
46927;SDS011;32668;51.306;-0.576;2022-08-06T04:18:27;10.80;;;6.00;;
46927;SDS011;32668;51.306;-0.576;2022-08-06T04:20:55;11.20;;;5.57;;
46927;SDS011;32668;51.306;-0.576;2022-08-06T04:23:26;11.35;;;6.57;;
46927;SDS011;32668;51.306;-0.576;2022-08-06T04:25:53;9.40;;;5.50;;
46927;SDS011;32668;51.306;-0.576;2022-08-06T04:28:21;10.15;;;6.03;;
46927;SDS011;32668;51.306;-0.576;2022-08-06T04:30:49;11.32;;;5.97;;
46927;SDS011;32668;51.306;-0.576;2022-08-06T04:33:17;12.07;;;5.28;;
46927;SDS011;32668;51.306;-0.576;2022-08-06T04:35:45;9.18;;;5.65;;
46927;SDS011;32668;51.306;-0.576;2022-08-06T04:38:11;10.90;;;6.00;;
46927;SDS011;32668;51.306;-0.576;2022-08-06T04:40:38;7.10;;;5.53;;
46927;SDS011;32668;51.306;-0.576;2022-08-06T04:43:06;10.73;;;6.25;;
46927;SDS011;32668;51.306;-0.576;2022-08-06T04:45:33;8.25;;;5.88;;
46927;SDS011;32668;51.306;-0.576;2022-08-06T04:48:01;13.27;;;5.85;;
46927;SDS011;32668;51.306;-0.576;2022-08-06T04:50:29;9.18;;;6.43;;
46927;SDS011;32668;51.306;-0.576;2022-08-06T04:53:06;9.73;;;6.00;;
46927;SDS011;32668;51.306;-0.576;2022-08-06T04:55:33;10.02;;;7.03;;
46927;SDS011;32668;51.306;-0.576;2022-08-06T04:57:59;8.55;;;5.50;;
46927;SDS011;32668;51.306;-0.576;2022-08-06T05:00:25;8.40;;;5.43;;
46927;SDS011;32668;51.306;-0.576;2022-08-06T05:02:51;11.45;;;5.72;;
46927;SDS011;32668;51.306;-0.576;2022-08-06T05:05:16;8.95;;;5.50;;
46927;SDS011;32668;51.306;-0.576;2022-08-06T05:07:46;12.50;;;6.10;;
46927;SDS011;32668;51.306;-0.576;2022-08-06T05:10:12;13.18;;;5.97;;
46927;SDS011;32668;51.306;-0.576;2022-08-06T05:12:42;11.10;;;5.70;;
46927;SDS011;32668;51.306;-0.576;2022-08-06T05:17:48;12.50;;;5.93;;
46927;SDS011;32668;51.306;-0.576;2022-08-06T05:20:21;9.80;;;6.00;;
46927;SDS011;32668;51.306;-0.576;2022-08-06T05:22:47;9.98;;;6.22;;
46927;SDS011;32668;51.306;-0.576;2022-08-06T05:25:16;10.75;;;5.80;;
46927;SDS011;32668;51.306;-0.576;2022-08-06T05:27:42;13.70;;;6.53;;
46927;SDS011;32668;51.306;-0.576;2022-08-06T05:30:08;9.88;;;6.35;;
46927;SDS011;32668;51.306;-0.576;2022-08-06T05:32:43;11.10;;;6.65;;
46927;SDS011;32668;51.306;-0.576;2022-08-06T05:35:11;10.07;;;5.93;;
46927;SDS011;32668;51.306;-0.576;2022-08-06T05:37:37;12.43;;;5.97;;
46927;SDS011;32668;51.306;-0.576;2022-08-06T05:40:03;10.10;;;6.40;;
46927;SDS011;32668;51.306;-0.576;2022-08-06T05:42:29;9.52;;;6.30;;
46927;SDS011;32668;51.306;-0.576;2022-08-06T05:44:55;13.30;;;6.45;;
46927;SDS011;32668;51.306;-0.576;2022-08-06T05:47:22;12.68;;;5.90;;
46927;SDS011;32668;51.306;-0.576;2022-08-06T05:49:54;10.75;;;6.57;;
46927;SDS011;32668;51.306;-0.576;2022-08-06T05:52:31;10.48;;;6.20;;
46927;SDS011;32668;51.306;-0.576;2022-08-06T05:58:03;8.15;;;5.38;;
46927;SDS011;32668;51.306;-0.576;2022-08-06T06:00:34;8.50;;;5.85;;
46927;SDS011;32668;51.306;-0.576;2022-08-06T06:03:02;8.75;;;5.60;;
46927;SDS011;32668;51.306;-0.576;2022-08-06T06:05:31;12.82;;;6.47;;
46927;SDS011;32668;51.306;-0.576;2022-08-06T06:07:57;8.40;;;6.07;;
46927;SDS011;32668;51.306;-0.576;2022-08-06T06:10:24;13.73;;;6.38;;
46927;SDS011;32668;51.306;-0.576;2022-08-06T06:12:50;13.35;;;6.72;;
46927;SDS011;32668;51.306;-0.576;2022-08-06T06:15:16;9.02;;;6.05;;
46927;SDS011;32668;51.306;-0.576;2022-08-06T06:20:49;12.18;;;6.68;;
46927;SDS011;32668;51.306;-0.576;2022-08-06T06:23:44;17.20;;;5.85;;
46927;SDS011;32668;51.306;-0.576;2022-08-06T06:29:03;12.00;;;5.75;;
46927;SDS011;32668;51.306;-0.576;2022-08-06T06:34:21;10.13;;;5.70;;
46927;SDS011;32668;51.306;-0.576;2022-08-06T06:36:57;12.23;;;5.70;;
46927;SDS011;32668;51.306;-0.576;2022-08-06T06:39:33;8.80;;;5.53;;
46927;SDS011;32668;51.306;-0.576;2022-08-06T06:42:12;11.32;;;5.38;;
46927;SDS011;32668;51.306;-0.576;2022-08-06T06:44:44;6.25;;;5.00;;
46927;SDS011;32668;51.306;-0.576;2022-08-06T06:47:18;11.40;;;5.57;;
46927;SDS011;32668;51.306;-0.576;2022-08-06T06:50:00;10.80;;;4.95;;
46927;SDS011;32668;51.306;-0.576;2022-08-06T06:52:36;13.95;;;5.93;;
46927;SDS011;32668;51.306;-0.576;2022-08-06T06:55:12;10.98;;;5.70;;
46927;SDS011;32668;51.306;-0.576;2022-08-06T06:57:43;11.13;;;5.60;;
46927;SDS011;32668;51.306;-0.576;2022-08-06T07:00:13;9.23;;;5.00;;
46927;SDS011;32668;51.306;-0.576;2022-08-06T07:02:39;9.80;;;4.70;;
46927;SDS011;32668;51.306;-0.576;2022-08-06T07:05:07;7.30;;;5.53;;
46927;SDS011;32668;51.306;-0.576;2022-08-06T07:07:36;11.88;;;5.30;;
46927;SDS011;32668;51.306;-0.576;2022-08-06T07:10:05;9.52;;;5.80;;
46927;SDS011;32668;51.306;-0.576;2022-08-06T07:12:34;12.43;;;5.40;;
46927;SDS011;32668;51.306;-0.576;2022-08-06T07:15:01;11.32;;;5.60;;
46927;SDS011;32668;51.306;-0.576;2022-08-06T07:17:30;9.38;;;5.80;;
46927;SDS011;32668;51.306;-0.576;2022-08-06T07:19:59;12.38;;;4.97;;
46927;SDS011;32668;51.306;-0.576;2022-08-06T07:22:27;12.27;;;5.72;;
46927;SDS011;32668;51.306;-0.576;2022-08-06T07:24:58;10.20;;;5.70;;
46927;SDS011;32668;51.306;-0.576;2022-08-06T07:27:25;14.18;;;5.78;;
46927;SDS011;32668;51.306;-0.576;2022-08-06T07:29:54;8.23;;;5.40;;
46927;SDS011;32668;51.306;-0.576;2022-08-06T07:32:22;9.43;;;6.18;;
46927;SDS011;32668;51.306;-0.576;2022-08-06T07:34:48;10.60;;;5.63;;
46927;SDS011;32668;51.306;-0.576;2022-08-06T07:37:16;10.50;;;5.90;;
46927;SDS011;32668;51.306;-0.576;2022-08-06T07:39:45;11.27;;;6.25;;
46927;SDS011;32668;51.306;-0.576;2022-08-06T07:42:13;10.23;;;6.60;;
46927;SDS011;32668;51.306;-0.576;2022-08-06T07:44:47;10.55;;;6.25;;
46927;SDS011;32668;51.306;-0.576;2022-08-06T07:47:19;12.18;;;6.78;;
46927;SDS011;32668;51.306;-0.576;2022-08-06T07:49:52;14.00;;;6.72;;
46927;SDS011;32668;51.306;-0.576;2022-08-06T07:54:46;10.45;;;5.95;;
46927;SDS011;32668;51.306;-0.576;2022-08-06T07:57:13;10.32;;;5.57;;
46927;SDS011;32668;51.306;-0.576;2022-08-06T07:59:40;16.20;;;7.47;;
46927;SDS011;32668;51.306;-0.576;2022-08-06T08:02:06;12.38;;;7.13;;
46927;SDS011;32668;51.306;-0.576;2022-08-06T08:04:33;11.52;;;6.82;;
46927;SDS011;32668;51.306;-0.576;2022-08-06T08:07:17;16.35;;;7.20;;
46927;SDS011;32668;51.306;-0.576;2022-08-06T08:09:44;11.95;;;7.57;;
46927;SDS011;32668;51.306;-0.576;2022-08-06T08:12:14;9.25;;;6.25;;
46927;SDS011;32668;51.306;-0.576;2022-08-06T08:14:42;21.42;;;6.82;;
46927;SDS011;32668;51.306;-0.576;2022-08-06T08:17:09;13.13;;;7.25;;
46927;SDS011;32668;51.306;-0.576;2022-08-06T08:19:35;12.80;;;6.65;;
46927;SDS011;32668;51.306;-0.576;2022-08-06T08:22:02;13.38;;;6.82;;
46927;SDS011;32668;51.306;-0.576;2022-08-06T08:24:33;15.48;;;7.97;;
46927;SDS011;32668;51.306;-0.576;2022-08-06T08:27:00;12.85;;;7.07;;
46927;SDS011;32668;51.306;-0.576;2022-08-06T08:29:28;13.18;;;6.32;;
46927;SDS011;32668;51.306;-0.576;2022-08-06T08:31:54;11.77;;;7.38;;
46927;SDS011;32668;51.306;-0.576;2022-08-06T08:34:20;16.27;;;6.70;;
46927;SDS011;32668;51.306;-0.576;2022-08-06T08:36:45;11.55;;;7.00;;
46927;SDS011;32668;51.306;-0.576;2022-08-06T08:39:10;15.35;;;6.95;;
46927;SDS011;32668;51.306;-0.576;2022-08-06T08:41:38;11.60;;;6.88;;
46927;SDS011;32668;51.306;-0.576;2022-08-06T08:44:06;12.35;;;7.70;;
46927;SDS011;32668;51.306;-0.576;2022-08-06T08:46:37;15.88;;;7.88;;
46927;SDS011;32668;51.306;-0.576;2022-08-06T08:49:04;17.08;;;7.93;;
46927;SDS011;32668;51.306;-0.576;2022-08-06T08:51:32;18.13;;;8.07;;
46927;SDS011;32668;51.306;-0.576;2022-08-06T08:54:00;20.52;;;8.45;;
46927;SDS011;32668;51.306;-0.576;2022-08-06T08:56:31;12.02;;;7.30;;
46927;SDS011;32668;51.306;-0.576;2022-08-06T08:58:56;14.38;;;7.35;;
46927;SDS011;32668;51.306;-0.576;2022-08-06T09:01:22;11.90;;;7.47;;
46927;SDS011;32668;51.306;-0.576;2022-08-06T09:03:48;15.90;;;7.75;;
46927;SDS011;32668;51.306;-0.576;2022-08-06T09:06:14;9.70;;;6.22;;
46927;SDS011;32668;51.306;-0.576;2022-08-06T09:08:39;14.80;;;6.63;;
46927;SDS011;32668;51.306;-0.576;2022-08-06T09:11:05;10.98;;;6.22;;
46927;SDS011;32668;51.306;-0.576;2022-08-06T09:13:31;12.35;;;6.75;;
46927;SDS011;32668;51.306;-0.576;2022-08-06T09:15:58;10.30;;;5.97;;
46927;SDS011;32668;51.306;-0.576;2022-08-06T09:18:24;9.82;;;5.80;;
46927;SDS011;32668;51.306;-0.576;2022-08-06T09:20:50;9.65;;;6.10;;
46927;SDS011;32668;51.306;-0.576;2022-08-06T09:23:16;11.00;;;6.15;;
46927;SDS011;32668;51.306;-0.576;2022-08-06T09:25:44;7.57;;;5.68;;
46927;SDS011;32668;51.306;-0.576;2022-08-06T09:28:26;8.18;;;5.07;;
46927;SDS011;32668;51.306;-0.576;2022-08-06T09:33:27;11.20;;;6.63;;
46927;SDS011;32668;51.306;-0.576;2022-08-06T09:36:02;8.68;;;6.43;;
46927;SDS011;32668;51.306;-0.576;2022-08-06T09:41:11;13.43;;;7.47;;
46927;SDS011;32668;51.306;-0.576;2022-08-06T09:43:38;10.35;;;5.95;;
46927;SDS011;32668;51.306;-0.576;2022-08-06T09:46:04;7.93;;;5.60;;
46927;SDS011;32668;51.306;-0.576;2022-08-06T09:48:30;9.65;;;6.00;;
46927;SDS011;32668;51.306;-0.576;2022-08-06T09:50:57;15.05;;;6.18;;
46927;SDS011;32668;51.306;-0.576;2022-08-06T09:53:23;8.77;;;5.40;;
46927;SDS011;32668;51.306;-0.576;2022-08-06T09:55:49;13.20;;;6.50;;
46927;SDS011;32668;51.306;-0.576;2022-08-06T09:58:28;10.82;;;6.40;;
46927;SDS011;32668;51.306;-0.576;2022-08-06T10:00:55;13.80;;;6.00;;
46927;SDS011;32668;51.306;-0.576;2022-08-06T10:03:21;9.25;;;5.97;;
46927;SDS011;32668;51.306;-0.576;2022-08-06T10:05:50;8.48;;;5.28;;
46927;SDS011;32668;51.306;-0.576;2022-08-06T10:08:28;7.07;;;5.25;;
46927;SDS011;32668;51.306;-0.576;2022-08-06T10:10:53;6.13;;;5.03;;
46927;SDS011;32668;51.306;-0.576;2022-08-06T10:13:22;10.85;;;5.00;;
46927;SDS011;32668;51.306;-0.576;2022-08-06T10:15:55;8.40;;;5.90;;
46927;SDS011;32668;51.306;-0.576;2022-08-06T10:18:32;8.60;;;5.85;;
46927;SDS011;32668;51.306;-0.576;2022-08-06T10:21:10;10.02;;;5.50;;
46927;SDS011;32668;51.306;-0.576;2022-08-06T10:23:37;10.20;;;5.72;;
46927;SDS011;32668;51.306;-0.576;2022-08-06T10:26:06;7.93;;;4.93;;
46927;SDS011;32668;51.306;-0.576;2022-08-06T10:28:34;9.23;;;4.78;;
46927;SDS011;32668;51.306;-0.576;2022-08-06T10:31:02;6.70;;;4.82;;
46927;SDS011;32668;51.306;-0.576;2022-08-06T10:33:31;5.70;;;4.70;;
46927;SDS011;32668;51.306;-0.576;2022-08-06T10:36:01;5.60;;;4.93;;
46927;SDS011;32668;51.306;-0.576;2022-08-06T10:38:30;8.05;;;5.82;;
46927;SDS011;32668;51.306;-0.576;2022-08-06T10:40:59;9.75;;;5.15;;
46927;SDS011;32668;51.306;-0.576;2022-08-06T10:43:28;8.75;;;5.18;;
46927;SDS011;32668;51.306;-0.576;2022-08-06T10:45:54;9.68;;;5.85;;
46927;SDS011;32668;51.306;-0.576;2022-08-06T10:48:20;10.98;;;5.38;;
46927;SDS011;32668;51.306;-0.576;2022-08-06T10:50:46;7.95;;;5.45;;
46927;SDS011;32668;51.306;-0.576;2022-08-06T10:53:12;9.48;;;5.53;;
46927;SDS011;32668;51.306;-0.576;2022-08-06T10:55:37;10.18;;;5.50;;
46927;SDS011;32668;51.306;-0.576;2022-08-06T10:58:04;7.65;;;4.90;;
46927;SDS011;32668;51.306;-0.576;2022-08-06T11:00:31;15.40;;;5.90;;
46927;SDS011;32668;51.306;-0.576;2022-08-06T11:03:22;10.00;;;5.30;;
46927;SDS011;32668;51.306;-0.576;2022-08-06T11:06:01;9.65;;;4.50;;
46927;SDS011;32668;51.306;-0.576;2022-08-06T11:09:05;6.72;;;4.60;;
46927;SDS011;32668;51.306;-0.576;2022-08-06T11:14:36;10.40;;;5.28;;
46927;SDS011;32668;51.306;-0.576;2022-08-06T11:17:03;8.05;;;4.85;;
46927;SDS011;32668;51.306;-0.576;2022-08-06T11:19:37;9.02;;;4.35;;
46927;SDS011;32668;51.306;-0.576;2022-08-06T11:22:07;6.80;;;4.63;;
46927;SDS011;32668;51.306;-0.576;2022-08-06T11:24:53;7.53;;;4.43;;
46927;SDS011;32668;51.306;-0.576;2022-08-06T11:30:37;7.68;;;4.18;;
46927;SDS011;32668;51.306;-0.576;2022-08-06T11:33:04;7.00;;;4.50;;
46927;SDS011;32668;51.306;-0.576;2022-08-06T11:38:09;5.45;;;4.03;;
46927;SDS011;32668;51.306;-0.576;2022-08-06T11:40:55;6.40;;;4.13;;
46927;SDS011;32668;51.306;-0.576;2022-08-06T11:43:45;7.95;;;4.20;;
46927;SDS011;32668;51.306;-0.576;2022-08-06T11:46:27;7.90;;;4.82;;
46927;SDS011;32668;51.306;-0.576;2022-08-06T11:54:09;5.70;;;4.25;;
46927;SDS011;32668;51.306;-0.576;2022-08-06T11:57:03;10.38;;;4.97;;
46927;SDS011;32668;51.306;-0.576;2022-08-06T12:02:02;8.05;;;4.57;;
46927;SDS011;32668;51.306;-0.576;2022-08-06T12:20:38;7.05;;;4.78;;
46927;SDS011;32668;51.306;-0.576;2022-08-06T12:23:12;8.27;;;4.50;;
46927;SDS011;32668;51.306;-0.576;2022-08-06T12:25:40;5.50;;;4.30;;
46927;SDS011;32668;51.306;-0.576;2022-08-06T12:28:08;6.78;;;4.68;;
46927;SDS011;32668;51.306;-0.576;2022-08-06T12:33:07;9.82;;;4.07;;
46927;SDS011;32668;51.306;-0.576;2022-08-06T12:35:34;6.05;;;3.60;;
46927;SDS011;32668;51.306;-0.576;2022-08-06T12:38:00;5.72;;;3.90;;
46927;SDS011;32668;51.306;-0.576;2022-08-06T12:40:26;4.93;;;4.03;;
46927;SDS011;32668;51.306;-0.576;2022-08-06T12:45:27;8.05;;;4.82;;
46927;SDS011;32668;51.306;-0.576;2022-08-06T12:50:26;5.88;;;3.92;;
46927;SDS011;32668;51.306;-0.576;2022-08-06T12:58:02;5.25;;;3.47;;
46927;SDS011;32668;51.306;-0.576;2022-08-06T13:00:28;6.32;;;4.10;;
46927;SDS011;32668;51.306;-0.576;2022-08-06T13:02:54;4.40;;;3.53;;
46927;SDS011;32668;51.306;-0.576;2022-08-06T13:05:21;3.58;;;3.20;;
46927;SDS011;32668;51.306;-0.576;2022-08-06T13:07:51;5.13;;;3.55;;
46927;SDS011;32668;51.306;-0.576;2022-08-06T13:10:18;5.72;;;3.90;;
46927;SDS011;32668;51.306;-0.576;2022-08-06T13:12:44;5.07;;;3.35;;
46927;SDS011;32668;51.306;-0.576;2022-08-06T13:15:21;9.25;;;3.33;;
46927;SDS011;32668;51.306;-0.576;2022-08-06T13:20:45;4.32;;;3.00;;
46927;SDS011;32668;51.306;-0.576;2022-08-06T13:23:12;8.35;;;3.75;;
46927;SDS011;32668;51.306;-0.576;2022-08-06T13:25:40;5.18;;;3.47;;
46927;SDS011;32668;51.306;-0.576;2022-08-06T13:28:11;5.32;;;3.28;;
46927;SDS011;32668;51.306;-0.576;2022-08-06T13:30:39;9.05;;;4.05;;
46927;SDS011;32668;51.306;-0.576;2022-08-06T13:33:19;4.80;;;2.90;;
46927;SDS011;32668;51.306;-0.576;2022-08-06T13:35:49;5.93;;;3.55;;
46927;SDS011;32668;51.306;-0.576;2022-08-06T13:38:29;3.75;;;3.22;;
46927;SDS011;32668;51.306;-0.576;2022-08-06T13:40:57;5.70;;;3.30;;
46927;SDS011;32668;51.306;-0.576;2022-08-06T13:43:33;6.30;;;3.03;;
46927;SDS011;32668;51.306;-0.576;2022-08-06T13:46:07;8.27;;;3.53;;
46927;SDS011;32668;51.306;-0.576;2022-08-06T13:48:34;4.68;;;3.30;;
46927;SDS011;32668;51.306;-0.576;2022-08-06T13:50:59;6.80;;;3.10;;
46927;SDS011;32668;51.306;-0.576;2022-08-06T13:53:24;5.28;;;3.15;;
46927;SDS011;32668;51.306;-0.576;2022-08-06T13:55:50;5.20;;;2.83;;
46927;SDS011;32668;51.306;-0.576;2022-08-06T13:58:15;5.03;;;3.35;;
46927;SDS011;32668;51.306;-0.576;2022-08-06T14:00:41;6.25;;;3.63;;
46927;SDS011;32668;51.306;-0.576;2022-08-06T14:03:11;5.88;;;3.60;;
46927;SDS011;32668;51.306;-0.576;2022-08-06T14:05:37;3.92;;;3.00;;
46927;SDS011;32668;51.306;-0.576;2022-08-06T14:08:03;5.20;;;3.03;;
46927;SDS011;32668;51.306;-0.576;2022-08-06T14:10:28;3.85;;;2.75;;
46927;SDS011;32668;51.306;-0.576;2022-08-06T14:12:54;4.85;;;3.20;;
46927;SDS011;32668;51.306;-0.576;2022-08-06T14:15:38;5.13;;;3.25;;
46927;SDS011;32668;51.306;-0.576;2022-08-06T14:18:05;8.75;;;3.15;;
46927;SDS011;32668;51.306;-0.576;2022-08-06T14:20:30;5.07;;;3.08;;
46927;SDS011;32668;51.306;-0.576;2022-08-06T14:22:56;9.52;;;3.50;;
46927;SDS011;32668;51.306;-0.576;2022-08-06T14:25:22;6.15;;;3.63;;
46927;SDS011;32668;51.306;-0.576;2022-08-06T14:27:48;5.80;;;2.90;;
46927;SDS011;32668;51.306;-0.576;2022-08-06T14:30:14;6.15;;;3.85;;
46927;SDS011;32668;51.306;-0.576;2022-08-06T14:32:41;5.10;;;3.13;;
46927;SDS011;32668;51.306;-0.576;2022-08-06T14:35:08;5.63;;;3.08;;
46927;SDS011;32668;51.306;-0.576;2022-08-06T14:37:34;6.30;;;3.38;;
46927;SDS011;32668;51.306;-0.576;2022-08-06T14:40:00;4.88;;;3.20;;
46927;SDS011;32668;51.306;-0.576;2022-08-06T14:42:26;5.35;;;3.80;;
46927;SDS011;32668;51.306;-0.576;2022-08-06T14:45:10;3.83;;;2.92;;
46927;SDS011;32668;51.306;-0.576;2022-08-06T14:47:36;6.28;;;3.20;;
46927;SDS011;32668;51.306;-0.576;2022-08-06T14:50:01;8.30;;;3.00;;
46927;SDS011;32668;51.306;-0.576;2022-08-06T14:52:29;8.73;;;3.08;;
46927;SDS011;32668;51.306;-0.576;2022-08-06T14:54:54;6.57;;;3.20;;
46927;SDS011;32668;51.306;-0.576;2022-08-06T14:57:20;9.02;;;3.60;;
46927;SDS011;32668;51.306;-0.576;2022-08-06T14:59:46;6.15;;;3.38;;
46927;SDS011;32668;51.306;-0.576;2022-08-06T15:02:12;5.25;;;3.25;;
46927;SDS011;32668;51.306;-0.576;2022-08-06T15:04:38;6.25;;;3.65;;
46927;SDS011;32668;51.306;-0.576;2022-08-06T15:07:05;7.82;;;2.92;;
46927;SDS011;32668;51.306;-0.576;2022-08-06T15:09:30;5.13;;;3.25;;
46927;SDS011;32668;51.306;-0.576;2022-08-06T15:11:57;3.28;;;2.60;;
46927;SDS011;32668;51.306;-0.576;2022-08-06T15:14:23;8.68;;;2.92;;
46927;SDS011;32668;51.306;-0.576;2022-08-06T15:16:48;3.72;;;2.85;;
46927;SDS011;32668;51.306;-0.576;2022-08-06T15:19:14;3.90;;;2.63;;
46927;SDS011;32668;51.306;-0.576;2022-08-06T15:21:39;4.57;;;2.95;;
46927;SDS011;32668;51.306;-0.576;2022-08-06T15:24:05;5.47;;;3.25;;
46927;SDS011;32668;51.306;-0.576;2022-08-06T15:26:31;7.32;;;2.65;;
46927;SDS011;32668;51.306;-0.576;2022-08-06T15:28:56;4.28;;;3.15;;
46927;SDS011;32668;51.306;-0.576;2022-08-06T15:31:21;3.30;;;2.40;;
46927;SDS011;32668;51.306;-0.576;2022-08-06T15:33:47;4.60;;;3.05;;
46927;SDS011;32668;51.306;-0.576;2022-08-06T15:36:13;5.35;;;3.08;;
46927;SDS011;32668;51.306;-0.576;2022-08-06T15:38:38;5.13;;;2.83;;
46927;SDS011;32668;51.306;-0.576;2022-08-06T15:41:04;7.18;;;3.03;;
46927;SDS011;32668;51.306;-0.576;2022-08-06T15:43:31;7.03;;;3.22;;
46927;SDS011;32668;51.306;-0.576;2022-08-06T15:45:57;7.75;;;3.60;;
46927;SDS011;32668;51.306;-0.576;2022-08-06T15:48:26;5.43;;;2.92;;
46927;SDS011;32668;51.306;-0.576;2022-08-06T15:50:52;4.88;;;2.75;;
46927;SDS011;32668;51.306;-0.576;2022-08-06T15:53:19;5.55;;;3.05;;
46927;SDS011;32668;51.306;-0.576;2022-08-06T15:55:45;10.18;;;2.83;;
46927;SDS011;32668;51.306;-0.576;2022-08-06T15:58:11;6.22;;;2.70;;